Time;durP1;ratioP1;P1;durP2;ratioP2;P2;SDS_P1;SDS_P2;PMS_P1;PMS_P2;Temp;Humidity;BMP_temperature;BMP_pressure;BME280_temperature;BME280_humidity;BME280_pressure;Samples;Min_cycle;Max_cycle;Signal;HPM_P1;HPM_P2
2022/05/04 00:01:16;;;;;;;1.73;1.10;;;;;;;10.32;57.38;98571.06;5100164;28;20051;-42
2022/05/04 00:03:42;;;;;;;3.40;0.90;;;;;;;10.30;57.46;98568.56;5117481;27;20089;-42
2022/05/04 00:06:09;;;;;;;1.88;1.15;;;;;;;10.31;57.41;98567.59;5121445;27;20044;-41
2022/05/04 00:08:35;;;;;;;2.50;1.20;;;;;;;10.30;57.55;98565.97;5096443;28;20063;-41
2022/05/04 00:11:01;;;;;;;5.82;1.55;;;;;;;10.26;57.87;98568.78;5096575;28;20066;-41
2022/05/04 00:13:27;;;;;;;2.88;1.25;;;;;;;10.24;58.06;98568.03;5093795;28;20040;-40
2022/05/04 00:15:53;;;;;;;4.53;1.35;;;;;;;10.11;58.17;98552.16;5105763;28;20100;-42
2022/05/04 00:18:19;;;;;;;1.80;1.27;;;;;;;10.28;58.73;98574.72;5123057;27;20506;-44
2022/05/04 00:20:45;;;;;;;5.10;1.50;;;;;;;10.27;58.79;98576.50;5111893;28;20071;-44
2022/05/04 00:23:10;;;;;;;3.22;1.15;;;;;;;10.25;58.71;98583.53;5104273;28;20039;-40
2022/05/04 00:25:36;;;;;;;2.20;1.30;;;;;;;10.23;59.17;98587.09;5106006;28;20043;-42
2022/05/04 00:28:04;;;;;;;2.80;1.30;;;;;;;10.17;59.13;98586.50;5114297;28;20083;-43
2022/05/04 00:30:30;;;;;;;2.67;1.20;;;;;;;10.11;59.49;98586.78;5109014;28;20036;-42
2022/05/04 00:32:55;;;;;;;4.13;1.58;;;;;;;10.05;59.83;98592.25;5100425;28;20035;-40
2022/05/04 00:35:21;;;;;;;2.20;1.20;;;;;;;10.00;59.86;98589.06;5111770;28;20544;-41
2022/05/04 00:37:47;;;;;;;1.88;1.20;;;;;;;9.96;59.41;98584.09;5111137;28;20055;-42
2022/05/04 00:40:13;;;;;;;3.00;1.42;;;;;;;9.84;59.70;98580.34;5095958;28;20048;-41
2022/05/04 00:42:39;;;;;;;2.58;1.17;;;;;;;9.79;59.74;98590.94;5106480;28;20044;-41
2022/05/04 00:45:05;;;;;;;6.45;1.63;;;;;;;9.77;59.58;98587.59;5093141;28;20130;-40
2022/05/04 00:47:31;;;;;;;2.80;1.13;;;;;;;9.65;59.53;98588.19;5106179;28;20047;-41
2022/05/04 00:50:02;;;;;;;2.28;1.25;;;;;;;9.57;60.02;98581.69;5112379;28;20042;-41
2022/05/04 00:52:29;;;;;;;2.38;1.17;;;;;;;9.49;59.66;98582.06;5105043;28;20050;-40
2022/05/04 00:54:55;;;;;;;1.65;1.40;;;;;;;9.42;59.97;98585.84;5112355;28;20044;-40
2022/05/04 00:58:54;;;;;;;1.95;1.10;;;;;;;9.34;59.98;98583.63;5112060;28;20119;-42
2022/05/04 01:00:08;;;;;;;2.58;1.20;;;;;;;9.09;60.60;98554.56;5110028;28;20564;-42
2022/05/04 01:02:34;;;;;;;3.33;1.15;;;;;;;9.11;60.53;98577.81;5107820;28;20066;-41
2022/05/04 01:04:59;;;;;;;4.40;1.35;;;;;;;9.02;60.83;98581.66;5110016;28;20410;-41
2022/05/04 01:07:26;;;;;;;4.18;1.33;;;;;;;8.97;60.86;98587.97;5105205;28;20051;-41
2022/05/04 01:09:51;;;;;;;2.30;1.20;;;;;;;8.92;61.52;98586.44;5098973;28;20543;-40
2022/05/04 01:12:22;;;;;;;2.30;1.35;;;;;;;8.86;61.80;98578.09;5093891;28;20043;-41
2022/05/04 01:14:47;;;;;;;2.90;1.40;;;;;;;8.81;61.57;98577.44;5098201;28;20071;-40
2022/05/04 01:17:13;;;;;;;2.58;1.15;;;;;;;8.75;62.12;98580.31;5106155;28;20569;-41
2022/05/04 01:19:39;;;;;;;1.92;1.30;;;;;;;8.67;62.42;98578.09;5100274;28;20035;-41
2022/05/04 01:22:04;;;;;;;3.08;1.50;;;;;;;8.64;62.86;98577.34;5106692;28;20040;-41
2022/05/04 01:24:30;;;;;;;2.03;1.20;;;;;;;8.58;63.07;98575.91;5093682;28;20038;-41
2022/05/04 01:26:56;;;;;;;2.33;1.45;;;;;;;8.51;63.00;98571.88;5093855;28;20048;-42
2022/05/04 01:29:21;;;;;;;3.47;1.35;;;;;;;8.50;63.09;98583.16;5092571;28;20097;-41
2022/05/04 01:31:47;;;;;;;3.75;1.25;;;;;;;8.45;63.22;98582.50;5100048;28;20084;-41
2022/05/04 01:34:13;;;;;;;2.53;1.02;;;;;;;8.40;63.10;98587.06;5092170;28;20097;-41
2022/05/04 01:36:39;;;;;;;2.20;1.35;;;;;;;8.37;63.14;98585.41;5091921;28;20054;-41
2022/05/04 01:39:05;;;;;;;2.00;1.05;;;;;;;8.33;63.22;98581.28;5107834;28;20031;-41
2022/05/04 01:44:15;;;;;;;3.90;1.40;;;;;;;8.18;63.25;98566.38;5109866;28;20035;-41
2022/05/04 01:46:41;;;;;;;3.45;1.20;;;;;;;8.21;63.42;98588.72;5092325;28;20043;-42
2022/05/04 01:49:07;;;;;;;3.33;1.30;;;;;;;8.18;63.28;98592.25;5090944;28;20071;-41
2022/05/04 01:51:33;;;;;;;2.80;1.23;;;;;;;8.15;63.19;98591.56;5097877;28;20036;-44
2022/05/04 01:53:58;;;;;;;3.13;1.15;;;;;;;8.11;63.17;98590.00;5093387;28;20040;-43
2022/05/04 01:56:24;;;;;;;2.72;1.33;;;;;;;8.12;63.58;98589.09;5091015;28;20058;-41
2022/05/04 01:58:50;;;;;;;1.65;1.35;;;;;;;8.13;63.71;98598.53;5098820;28;20130;-41
2022/05/04 02:01:16;;;;;;;3.10;1.17;;;;;;;8.13;63.49;98603.72;5095404;28;20480;-41
2022/05/04 02:03:42;;;;;;;3.63;1.38;;;;;;;8.17;62.91;98608.69;5089631;28;20039;-41
2022/05/04 02:06:08;;;;;;;1.50;0.98;;;;;;;8.26;62.85;98612.66;5111014;28;20043;-40
2022/05/04 02:08:35;;;;;;;1.48;1.02;;;;;;;8.34;62.55;98613.19;5095286;28;20040;-41
2022/05/04 02:11:01;;;;;;;3.13;0.98;;;;;;;8.39;62.54;98612.09;5091261;28;20569;-41
2022/05/04 02:13:27;;;;;;;1.88;1.30;;;;;;;8.33;62.24;98595.97;5095112;28;20162;-41
2022/05/04 02:15:53;;;;;;;3.30;1.10;;;;;;;8.40;62.69;98605.19;5104978;28;20124;-41
2022/05/04 02:18:18;;;;;;;9.45;1.50;;;;;;;8.39;62.10;98604.34;5097344;28;20102;-42
2022/05/04 02:20:44;;;;;;;4.53;1.40;;;;;;;8.42;61.88;98614.59;5097069;28;20036;-42
2022/05/04 02:23:09;;;;;;;1.88;1.23;;;;;;;8.55;61.77;98616.63;5095698;28;20040;-40
2022/05/04 02:25:35;;;;;;;3.33;1.23;;;;;;;8.70;61.20;98616.78;5092584;28;20075;-41
2022/05/04 02:28:01;;;;;;;1.73;1.08;;;;;;;8.85;60.63;98613.53;5100283;28;20535;-41
2022/05/04 02:30:26;;;;;;;1.13;0.90;;;;;;;8.99;59.98;98610.34;5098370;28;20529;-41
2022/05/04 02:32:52;;;;;;;3.78;1.05;;;;;;;9.10;59.12;98617.63;5095314;28;20104;-42
2022/05/04 02:38:02;;;;;;;1.65;1.10;;;;;;;9.23;58.17;98619.59;5102407;28;20454;-41
2022/05/04 02:40:28;;;;;;;2.88;0.98;;;;;;;9.29;57.90;98616.72;5102253;28;20048;-41
2022/05/04 02:42:54;;;;;;;2.50;0.93;;;;;;;9.38;57.68;98622.38;5092165;28;20139;-41
2022/05/04 02:45:20;;;;;;;1.67;0.80;;;;;;;9.45;57.48;98632.41;5089927;28;20046;-40
2022/05/04 02:47:46;;;;;;;4.22;1.00;;;;;;;9.52;56.69;98638.16;5095376;28;20483;-42
2022/05/04 02:50:12;;;;;;;1.63;0.77;;;;;;;9.59;56.62;98642.13;5090869;28;20040;-41
2022/05/04 02:52:37;;;;;;;1.63;0.80;;;;;;;9.68;56.48;98646.91;5097175;28;20104;-42
2022/05/04 02:55:05;;;;;;;3.28;0.90;;;;;;;9.73;56.76;98650.13;5108126;28;20059;-41
2022/05/04 02:57:30;;;;;;;5.43;1.38;;;;;;;9.77;56.66;98664.63;5103476;28;20096;-42
2022/05/04 02:59:56;;;;;;;1.50;0.80;;;;;;;9.64;57.27;98666.09;5105385;28;20060;-43
2022/05/04 03:02:28;;;;;;;0.82;0.80;;;;;;;9.54;57.45;98678.66;5094156;28;20058;-43
2022/05/04 03:04:59;;;;;;;1.58;0.73;;;;;;;9.44;58.23;98679.16;5110926;28;20035;-41
2022/05/04 03:07:26;;;;;;;4.78;1.13;;;;;;;9.34;58.12;98663.19;5104111;28;20214;-40
2022/05/04 03:09:52;;;;;;;1.52;0.80;;;;;;;9.34;58.48;98664.03;5090893;28;20063;-42
2022/05/04 03:12:18;;;;;;;2.25;0.93;;;;;;;9.35;58.58;98670.91;5080012;28;20454;-41
2022/05/04 03:14:44;;;;;;;1.95;0.70;;;;;;;9.21;58.74;98647.31;5095642;28;20043;-42
2022/05/04 03:17:10;;;;;;;8.85;0.95;;;;;;;9.33;58.49;98677.06;5107100;28;20036;-42
2022/05/04 03:19:36;;;;;;;0.85;0.60;;;;;;;9.34;58.55;98677.00;5092903;28;20131;-41
2022/05/04 03:22:02;;;;;;;2.53;1.08;;;;;;;9.38;58.59;98662.13;5091633;28;20465;-41
2022/05/04 03:24:27;;;;;;;2.65;0.70;;;;;;;9.44;58.40;98676.56;5091755;28;20052;-43
2022/05/04 03:26:53;;;;;;;1.65;0.73;;;;;;;9.44;58.38;98669.63;5090484;28;20044;-42
2022/05/04 03:29:19;;;;;;;4.72;1.02;;;;;;;9.47;58.13;98658.28;5110444;28;20076;-42
2022/05/04 03:31:45;;;;;;;0.60;0.50;;;;;;;9.42;58.15;98653.28;5109242;28;20039;-42
2022/05/04 03:34:10;;;;;;;1.08;0.80;;;;;;;9.45;57.81;98660.09;5095400;28;20089;-40
2022/05/04 03:36:36;;;;;;;1.60;0.90;;;;;;;9.29;57.98;98653.03;5089191;28;20036;-41
2022/05/04 03:39:03;;;;;;;2.97;0.95;;;;;;;9.13;57.70;98654.63;5101064;28;20031;-46
2022/05/04 03:41:29;;;;;;;1.20;0.85;;;;;;;9.07;57.57;98660.06;5091143;28;20404;-41
2022/05/04 03:43:55;;;;;;;1.48;0.85;;;;;;;9.05;57.65;98655.88;5090875;28;20043;-41
2022/05/04 03:46:23;;;;;;;2.97;1.13;;;;;;;9.01;57.80;98659.50;5100050;28;20039;-40
2022/05/04 03:48:57;;;;;;;3.17;0.70;;;;;;;8.88;57.63;98639.31;5091684;28;20039;-42
2022/05/04 03:51:23;;;;;;;3.13;1.10;;;;;;;8.95;57.89;98657.22;5099319;28;20039;-42
2022/05/04 03:53:50;;;;;;;5.63;0.93;;;;;;;8.93;57.69;98665.03;5096182;28;20050;-42
2022/05/04 03:56:17;;;;;;;0.80;0.70;;;;;;;8.88;57.58;98665.25;5090320;28;20040;-41
2022/05/04 03:58:43;;;;;;;2.83;0.80;;;;;;;8.82;58.03;98662.91;5090874;28;20040;-42
2022/05/04 04:01:09;;;;;;;2.97;1.60;;;;;;;8.84;57.94;98663.69;5099962;28;20052;-49
2022/05/04 04:03:35;;;;;;;6.90;1.75;;;;;;;8.90;58.12;98670.34;5090242;28;20050;-42
2022/05/04 04:06:01;;;;;;;4.40;0.80;;;;;;;8.95;57.68;98675.34;5091357;28;20035;-43
2022/05/04 04:08:28;;;;;;;7.03;1.15;;;;;;;9.00;57.54;98676.84;5093348;28;20048;-42
2022/05/04 04:10:54;;;;;;;3.17;1.10;;;;;;;9.00;57.69;98682.03;5094621;28;20035;-43
2022/05/04 04:13:20;;;;;;;2.30;1.20;;;;;;;9.03;56.73;98681.03;5095112;28;20044;-41
2022/05/04 04:15:46;;;;;;;1.40;0.70;;;;;;;9.19;56.49;98684.63;5093604;28;20454;-42
2022/05/04 04:18:12;;;;;;;5.97;1.13;;;;;;;9.49;56.12;98688.41;5108225;28;20503;-43
2022/05/04 04:23:22;;;;;;;1.88;0.80;;;;;;;9.74;54.42;98673.38;5093810;28;20039;-42
2022/05/04 04:25:48;;;;;;;11.65;1.58;;;;;;;9.85;53.92;98687.59;5111979;28;20062;-41
2022/05/04 04:28:14;;;;;;;9.27;1.05;;;;;;;9.91;53.81;98693.38;5093991;28;20508;-43
2022/05/04 04:30:39;;;;;;;2.08;1.00;;;;;;;9.95;52.83;98687.09;5110805;28;20427;-42
2022/05/04 04:33:07;;;;;;;3.28;0.80;;;;;;;10.03;52.99;98700.59;5109323;28;20088;-43
2022/05/04 04:35:36;;;;;;;1.70;0.70;;;;;;;10.10;52.33;98694.16;5113818;28;20044;-42
2022/05/04 04:38:02;;;;;;;3.88;0.52;;;;;;;10.25;52.03;98695.22;5112679;28;20039;-42
2022/05/04 04:40:28;;;;;;;4.03;1.00;;;;;;;10.49;51.07;98695.75;5109844;28;20389;-42
2022/05/04 04:42:54;;;;;;;2.75;0.70;;;;;;;10.74;51.14;98701.41;5106246;28;20085;-41
2022/05/04 04:45:19;;;;;;;2.17;0.60;;;;;;;11.01;50.51;98706.97;5112201;27;20040;-42
2022/05/04 04:47:46;;;;;;;4.78;0.88;;;;;;;11.17;49.76;98700.03;5110981;28;20117;-41
2022/05/04 04:50:12;;;;;;;4.63;1.02;;;;;;;11.49;49.00;98721.75;5113552;28;20396;-42
2022/05/04 04:52:37;;;;;;;4.53;1.20;;;;;;;11.77;48.45;98721.16;5102397;28;20097;-41
2022/05/04 04:55:04;;;;;;;6.60;1.17;;;;;;;11.91;48.13;98707.38;5092110;28;20047;-42
2022/05/04 04:57:32;;;;;;;2.58;0.80;;;;;;;12.13;48.05;98718.28;5092491;28;20036;-42
2022/05/04 04:59:58;;;;;;;1.33;0.70;;;;;;;12.22;47.79;98707.34;5093637;28;20102;-41
2022/05/04 05:02:23;;;;;;;3.55;1.00;;;;;;;12.54;47.09;98734.19;5093703;28;20063;-42
2022/05/04 05:04:49;;;;;;;4.95;0.82;;;;;;;12.51;46.63;98709.09;5109794;28;20044;-43
2022/05/04 05:07:15;;;;;;;3.97;0.85;;;;;;;12.77;46.31;98731.06;5113108;28;20130;-43
2022/05/04 05:09:40;;;;;;;5.22;1.10;;;;;;;12.71;46.51;98737.50;5108996;28;20048;-43
2022/05/04 05:12:07;;;;;;;5.75;1.00;;;;;;;12.57;46.53;98737.44;5097306;28;20043;-42
2022/05/04 05:17:17;;;;;;;2.15;0.88;;;;;;;12.32;46.45;98732.78;5112011;28;20127;-42
2022/05/04 05:19:43;;;;;;;15.77;2.10;;;;;;;12.28;46.85;98731.28;5099539;28;20132;-44
2022/05/04 05:22:09;;;;;;;12.57;1.13;;;;;;;12.24;47.08;98742.81;5109729;28;20064;-44
2022/05/04 05:24:34;;;;;;;4.80;0.90;;;;;;;12.28;46.63;98740.88;5098949;28;20066;-42
2022/05/04 05:27:00;;;;;;;4.20;1.10;;;;;;;12.31;46.41;98736.31;5092582;28;20129;-43
2022/05/04 05:29:26;;;;;;;5.53;0.90;;;;;;;12.58;46.19;98748.72;5092437;28;20046;-43
2022/05/04 05:31:52;;;;;;;3.05;0.90;;;;;;;12.63;45.97;98736.25;5092055;28;20058;-43
2022/05/04 05:34:18;;;;;;;2.90;1.15;;;;;;;12.69;46.15;98751.53;5110960;28;20100;-41
2022/05/04 05:36:44;;;;;;;6.22;0.90;;;;;;;12.70;46.05;98751.47;5106834;28;20036;-42
2022/05/04 05:39:10;;;;;;;10.90;2.67;;;;;;;12.64;45.76;98737.94;5102640;28;20031;-42
2022/05/04 05:41:36;;;;;;;2.40;1.30;;;;;;;12.43;46.44;98750.44;5092511;28;20563;-42
2022/05/04 05:44:02;;;;;;;3.35;1.25;;;;;;;12.41;46.37;98751.44;5108051;28;20082;-41
2022/05/04 05:46:29;;;;;;;5.25;1.35;;;;;;;12.60;46.00;98745.09;5110160;28;20043;-42
2022/05/04 05:48:55;;;;;;;3.10;1.20;;;;;;;12.96;45.68;98752.56;5112360;28;20462;-42
2022/05/04 05:51:21;;;;;;;8.60;1.00;;;;;;;13.30;45.13;98759.22;5098917;28;20051;-41
2022/05/04 05:53:46;;;;;;;7.97;1.23;;;;;;;13.41;45.06;98763.81;5104350;28;20118;-44
2022/05/04 05:56:12;;;;;;;6.22;1.52;;;;;;;13.35;44.86;98767.63;5107670;28;20085;-43
2022/05/04 05:58:38;;;;;;;5.40;1.40;;;;;;;13.25;45.04;98766.50;5100431;28;20514;-42
2022/05/04 06:01:04;;;;;;;3.67;1.00;;;;;;;13.15;45.06;98765.38;5090092;28;20465;-43
2022/05/04 06:03:30;;;;;;;6.32;0.90;;;;;;;13.07;45.08;98763.19;5101406;28;20043;-42
2022/05/04 06:05:56;;;;;;;3.70;0.88;;;;;;;13.09;44.70;98771.75;5110743;28;20039;-43
2022/05/04 06:08:21;;;;;;;2.38;0.85;;;;;;;12.96;44.47;98751.72;5111153;28;20445;-43
2022/05/04 06:10:47;;;;;;;1.95;1.00;;;;;;;12.96;44.96;98776.03;5099285;28;20416;-42
2022/05/04 06:13:13;;;;;;;5.80;1.10;;;;;;;12.84;45.09;98781.09;5107811;28;20043;-42
2022/05/04 06:15:39;;;;;;;2.90;1.13;;;;;;;12.50;46.01;98790.03;5088823;28;20044;-43
2022/05/04 06:18:04;;;;;;;1.25;1.02;;;;;;;12.28;47.15;98791.22;5109498;28;20047;-41
2022/05/04 06:20:31;;;;;;;14.70;1.40;;;;;;;12.17;47.18;98805.78;5111354;28;20457;-42
2022/05/04 06:22:57;;;;;;;4.65;1.30;;;;;;;12.05;47.71;98803.81;5109305;28;20079;-43
2022/05/04 06:25:23;;;;;;;8.40;1.60;;;;;;;11.97;47.91;98803.41;5111804;28;20140;-42
2022/05/04 06:27:48;;;;;;;7.60;2.20;;;;;;;11.86;48.59;98797.03;5110721;28;20040;-43
2022/05/04 06:35:43;;;;;;;7.50;1.15;;;;;;;12.34;48.25;98818.72;5102376;28;20046;-42
2022/05/04 06:38:10;;;;;;;8.48;1.17;;;;;;;12.19;48.45;98823.03;5092826;28;20048;-43
2022/05/04 06:40:37;;;;;;;9.52;1.63;;;;;;;12.02;48.92;98817.88;5104998;28;20130;-42
2022/05/04 06:43:03;;;;;;;3.40;1.02;;;;;;;12.09;48.65;98826.22;5089433;28;20044;-44
2022/05/04 06:45:29;;;;;;;5.95;0.95;;;;;;;12.98;46.57;98835.97;5091921;28;20511;-44
2022/05/04 06:47:55;;;;;;;1.45;0.63;;;;;;;13.36;45.42;98837.19;5111395;28;20050;-41
2022/05/04 06:50:21;;;;;;;3.97;0.80;;;;;;;14.22;42.61;98832.81;5096803;28;20492;-42
2022/05/04 06:52:47;;;;;;;1.50;0.60;;;;;;;16.26;38.32;98847.03;5104904;28;20164;-42
2022/05/04 06:55:13;;;;;;;1.20;0.60;;;;;;;16.07;36.88;98825.66;5107490;28;20054;-42
2022/05/04 06:57:39;;;;;;;4.15;1.42;;;;;;;15.37;39.58;98853.25;5101669;28;20043;-43
2022/05/04 07:00:07;;;;;;;8.77;1.27;;;;;;;14.63;40.71;98859.00;5110866;28;20064;-42
2022/05/04 07:02:33;;;;;;;4.80;1.25;;;;;;;13.94;42.22;98854.59;5103663;28;20043;-43
2022/05/04 07:05:00;;;;;;;2.25;0.85;;;;;;;13.49;43.26;98873.88;5107373;28;20046;-43
2022/05/04 07:07:26;;;;;;;7.20;1.00;;;;;;;13.74;42.71;98868.88;5090586;28;20039;-44
2022/05/04 07:09:52;;;;;;;2.78;0.90;;;;;;;14.28;41.37;98874.28;5091596;28;20036;-41
2022/05/04 07:12:17;;;;;;;4.45;1.00;;;;;;;14.70;40.68;98875.97;5093609;28;20063;-42
2022/05/04 07:14:43;;;;;;;4.75;1.02;;;;;;;17.27;36.22;98879.94;5098406;28;20027;-42
2022/05/04 07:17:09;;;;;;;7.00;1.10;;;;;;;19.85;32.06;98881.13;5101737;28;20051;-43
2022/05/04 07:19:35;;;;;;;3.50;0.80;;;;;;;21.75;29.10;98879.16;5099415;28;20707;-45
2022/05/04 07:22:01;;;;;;;2.78;1.20;;;;;;;23.30;26.78;98877.41;5100189;28;20173;-43
2022/05/04 07:24:26;;;;;;;1.15;1.05;;;;;;;23.79;25.79;98890.09;5089050;28;20086;-42
2022/05/04 07:26:52;;;;;;;3.22;1.10;;;;;;;22.94;27.01;98892.47;5089769;28;20621;-43
2022/05/04 07:29:19;;;;;;;2.63;1.13;;;;;;;21.73;28.16;98897.81;5101109;28;20036;-45
2022/05/04 07:31:44;;;;;;;2.42;0.63;;;;;;;20.27;29.83;98896.88;5099236;28;20028;-42
2022/05/04 07:34:11;;;;;;;1.90;1.00;;;;;;;19.35;30.71;98909.09;5098230;28;20047;-42
2022/05/04 07:36:37;;;;;;;3.10;0.73;;;;;;;18.46;31.59;98917.19;5100825;28;20093;-43
2022/05/04 07:39:03;;;;;;;5.03;2.90;;;;;;;17.90;32.10;98908.41;5097623;28;20457;-43
2022/05/04 07:44:13;;;;;;;3.05;0.70;;;;;;;18.00;31.13;98905.94;5101402;28;20050;-45
2022/05/04 07:46:39;;;;;;;3.20;1.20;;;;;;;19.16;29.90;98913.34;5099945;28;20044;-43
2022/05/04 07:49:06;;;;;;;3.13;1.55;;;;;;;21.18;27.76;98917.06;5113058;27;20115;-40
2022/05/04 07:51:32;;;;;;;6.38;0.90;;;;;;;20.28;28.26;98902.03;5118020;27;20039;-40
2022/05/04 07:53:58;;;;;;;2.03;1.00;;;;;;;19.22;29.47;98905.78;5125468;27;20087;-42
2022/05/04 07:56:23;;;;;;;4.68;1.33;;;;;;;21.09;27.03;98916.88;5129726;27;20046;-43
2022/05/04 07:58:49;;;;;;;3.10;0.90;;;;;;;23.20;24.35;98920.75;5133605;27;20113;-42
2022/05/04 08:04:18;;;;;;;7.95;1.10;;;;;;;20.08;27.93;98921.41;5091972;28;20100;-43
2022/05/04 08:06:44;;;;;;;3.92;1.15;;;;;;;18.23;30.66;98928.66;5092443;28;20131;-41
2022/05/04 08:09:10;;;;;;;6.60;1.00;;;;;;;17.19;32.60;98932.19;5092121;28;20040;-42
2022/05/04 08:11:36;;;;;;;2.60;1.10;;;;;;;16.44;33.74;98940.16;5093684;28;20048;-41
2022/05/04 08:14:02;;;;;;;5.18;1.30;;;;;;;15.81;34.55;98932.31;5113834;28;20031;-41
2022/05/04 08:16:27;;;;;;;6.22;1.02;;;;;;;15.31;35.04;98930.44;5111391;28;20515;-41
2022/05/04 08:18:53;;;;;;;3.28;1.10;;;;;;;14.91;35.29;98941.81;5114086;28;20079;-42
2022/05/04 08:21:19;;;;;;;4.03;1.05;;;;;;;14.59;35.54;98936.84;5105614;28;20036;-42
2022/05/04 08:23:45;;;;;;;2.58;1.40;;;;;;;14.62;35.46;98939.25;5093451;28;20044;-43
2022/05/04 08:26:12;;;;;;;5.72;1.45;;;;;;;15.09;35.12;98936.22;5116308;27;20077;-42
2022/05/04 08:28:39;;;;;;;2.97;1.10;;;;;;;15.32;34.79;98947.00;5123361;27;20163;-42
2022/05/04 08:31:05;;;;;;;3.85;1.50;;;;;;;15.72;35.08;98945.22;5120168;27;20076;-40
2022/05/04 08:33:31;;;;;;;11.18;1.40;;;;;;;15.63;36.05;98952.75;5122265;27;20502;-42
2022/05/04 08:35:57;;;;;;;1.35;1.05;;;;;;;15.19;36.53;98950.41;5119300;27;20031;-41
2022/05/04 08:38:23;;;;;;;3.22;0.80;;;;;;;14.55;37.34;98976.38;5123439;27;20047;-40
2022/05/04 08:40:55;;;;;;;5.53;1.60;;;;;;;13.71;39.66;98994.41;5118893;27;20487;-42
2022/05/04 08:43:24;;;;;;;1.90;1.02;;;;;;;12.90;42.31;99005.97;5122738;27;20497;-40
2022/05/04 08:45:52;;;;;;;4.00;1.15;;;;;;;12.19;44.52;99028.03;5114241;27;20039;-41
2022/05/04 08:48:18;;;;;;;4.43;1.00;;;;;;;11.67;45.63;99030.59;5108559;28;20043;-43
2022/05/04 08:50:44;;;;;;;3.45;1.13;;;;;;;11.14;47.08;99011.53;5094224;28;20056;-43
2022/05/04 08:53:10;;;;;;;2.88;0.80;;;;;;;10.93;47.79;99018.59;5114378;27;20587;-42
2022/05/04 08:55:38;;;;;;;2.15;1.00;;;;;;;10.76;47.69;99021.97;5123189;27;20035;-41
2022/05/04 08:58:04;;;;;;;3.70;1.23;;;;;;;10.68;48.13;99018.03;5121373;27;20047;-43
2022/05/04 09:00:29;;;;;;;2.95;0.90;;;;;;;10.66;48.84;99020.69;5117397;27;20058;-41
2022/05/04 09:02:55;;;;;;;1.77;1.15;;;;;;;10.74;48.82;99023.78;5123106;27;20422;-41
2022/05/04 09:05:26;;;;;;;1.27;0.85;;;;;;;10.96;47.95;99019.28;5122246;27;20079;-42
2022/05/04 09:07:54;;;;;;;3.72;1.00;;;;;;;11.24;47.43;99008.44;5109568;27;20646;-43
2022/05/04 09:10:34;;;;;;;3.10;0.90;;;;;;;11.61;46.66;99015.31;5116293;27;20078;-43
2022/05/04 09:13:00;;;;;;;3.42;1.00;;;;;;;11.92;45.47;99008.59;5120091;27;20491;-42
2022/05/04 09:15:31;;;;;;;3.25;1.00;;;;;;;12.46;44.27;99021.38;5121316;27;20039;-43
2022/05/04 09:18:05;;;;;;;1.90;1.10;;;;;;;12.70;42.58;99006.19;5119331;27;20088;-41
2022/05/04 09:20:53;;;;;;;1.58;1.13;;;;;;;13.66;41.54;99021.75;5121044;27;20520;-40
2022/05/04 09:23:32;;;;;;;2.90;1.30;;;;;;;14.81;39.94;99014.84;5118424;27;20049;-43
2022/05/04 09:26:19;;;;;;;3.83;1.58;;;;;;;15.52;37.13;99014.66;5112694;27;20423;-42
2022/05/04 09:28:48;;;;;;;2.28;1.13;;;;;;;16.63;35.26;99008.00;5122462;27;20028;-42
2022/05/04 09:31:14;;;;;;;;;;;;;;;17.74;33.90;99011.28;5119417;27;20509;-41
2022/05/04 09:33:40;;;;;;;2.88;1.17;;;;;;;18.74;32.79;99004.53;5118098;27;19958;-41
2022/05/04 09:36:06;;;;;;;3.28;1.40;;;;;;;18.80;32.54;99004.91;5120057;27;20157;-42
2022/05/04 09:46:52;;;;;;;2.72;1.73;;;;;;;24.25;24.17;99008.44;5121398;27;20035;-42
2022/05/04 09:49:27;;;;;;;3.33;1.20;;;;;;;24.92;23.65;98993.56;5119950;27;20465;-43
2022/05/04 09:51:54;;;;;;;5.68;1.48;;;;;;;23.53;25.52;99006.00;5101621;28;20093;-44
2022/05/04 09:54:25;;;;;;;2.97;1.38;;;;;;;21.66;26.62;99012.31;5107248;27;20050;-45
2022/05/04 09:56:59;;;;;;;3.20;1.10;;;;;;;20.13;27.34;99005.47;5095537;27;20040;-45
2022/05/04 09:59:26;;;;;;;1.60;0.98;;;;;;;18.92;27.90;99008.38;5110536;28;20457;-42
2022/05/04 10:01:53;;;;;;;2.60;0.88;;;;;;;18.14;28.53;98993.38;5115627;27;20081;-44
2022/05/04 10:04:20;;;;;;;2.95;1.15;;;;;;;18.16;29.07;99014.31;5112115;28;20042;-44
2022/05/04 10:06:50;;;;;;;4.63;1.15;;;;;;;19.88;26.64;99014.59;5107483;28;20070;-42
2022/05/04 10:09:17;;;;;;;4.70;0.80;;;;;;;19.76;26.03;99015.59;5098679;28;20099;-44
2022/05/04 10:11:43;;;;;;;2.58;0.95;;;;;;;18.71;26.94;99015.34;5117198;27;20034;-41
2022/05/04 10:14:12;;;;;;;3.92;1.00;;;;;;;17.59;28.35;99050.97;5100585;27;20176;-43
2022/05/04 10:16:45;;;;;;;;;;;;;;;16.35;29.45;99056.25;5119852;27;20050;-43
2022/05/04 10:19:22;;;;;;;1.65;0.95;;;;;;;15.33;31.08;99058.69;5117242;27;19951;-44
2022/05/04 10:21:50;;;;;;;2.72;0.80;;;;;;;14.66;32.22;99050.59;5116545;27;20043;-43
2022/05/04 10:24:16;;;;;;;5.20;0.80;;;;;;;14.15;32.57;99061.53;5114617;27;20515;-45
2022/05/04 10:26:44;;;;;;;4.07;0.80;;;;;;;13.76;33.00;99069.94;5110376;27;20063;-44
2022/05/04 10:32:35;;;;;;;5.85;1.23;;;;;;;13.08;34.60;99066.75;5119284;27;20117;-44
2022/05/04 10:35:21;;;;;;;5.05;1.20;;;;;;;12.97;35.24;99082.16;5112145;27;20499;-43
2022/05/04 10:37:57;;;;;;;4.13;1.40;;;;;;;12.68;35.59;99092.34;5112024;27;20051;-44
2022/05/04 10:40:33;;;;;;;1.52;0.98;;;;;;;12.39;35.57;99103.44;5115951;27;20048;-44
2022/05/04 10:43:04;;;;;;;1.88;0.80;;;;;;;11.90;36.20;99092.00;5118496;27;20047;-47
2022/05/04 10:45:32;;;;;;;4.07;1.00;;;;;;;11.55;35.54;99098.91;5113309;27;20047;-43
2022/05/04 10:48:09;;;;;;;1.48;0.90;;;;;;;11.31;37.04;99106.09;5120717;27;20070;-44
2022/05/04 10:50:57;;;;;;;1.30;0.70;;;;;;;10.75;37.71;99102.63;5117913;27;20123;-42
2022/05/04 10:53:23;;;;;;;4.60;0.60;;;;;;;10.86;37.52;99097.78;5120202;27;20058;-45
2022/05/04 10:56:01;;;;;;;5.07;0.95;;;;;;;11.70;36.37;99098.16;5117785;27;20073;-47
2022/05/04 10:59:01;;;;;;;3.17;1.00;;;;;;;13.69;34.07;99103.41;5112673;27;20050;-42
2022/05/04 11:01:30;;;;;;;4.55;1.02;;;;;;;15.98;30.72;99101.59;5097197;28;20048;-46
2022/05/04 11:03:56;;;;;;;;;;;;;;;17.12;29.32;99099.06;5099151;28;20444;-42
2022/05/04 11:06:26;;;;;;;2.22;1.00;;;;;;;18.31;27.15;99104.41;5097927;28;19916;-49
2022/05/04 11:08:54;;;;;;;11.23;3.95;;;;;;;20.00;26.48;99098.00;5081349;28;20070;-47
2022/05/04 11:11:22;;;;;;;6.30;1.50;;;;;;;21.81;25.02;99085.00;5097658;28;20455;-45
2022/05/04 11:13:48;;;;;;;1.77;1.00;;;;;;;23.03;22.77;99096.56;5097460;28;20567;-47
2022/05/04 11:16:14;;;;;;;4.88;2.00;;;;;;;23.79;22.36;99070.63;5098440;28;20058;-43
2022/05/04 11:18:39;;;;;;;1.38;1.17;;;;;;;24.19;21.54;99085.25;5101932;28;20036;-47
2022/05/04 11:21:12;;;;;;;3.63;1.33;;;;;;;25.11;20.98;99075.78;5104411;28;20067;-41
2022/05/04 11:23:39;;;;;;;4.70;1.15;;;;;;;25.53;20.67;99077.59;5103359;28;20032;-42
2022/05/04 11:26:05;;;;;;;3.38;1.20;;;;;;;24.73;20.58;99069.06;5086176;28;20036;-42
2022/05/04 11:28:31;;;;;;;4.70;1.50;;;;;;;23.30;22.06;99073.69;5101514;28;20035;-42
2022/05/04 11:30:57;;;;;;;5.25;1.63;;;;;;;23.59;21.63;99074.41;5086895;28;20044;-42
2022/05/04 11:33:22;;;;;;;5.15;1.20;;;;;;;24.14;20.72;99074.22;5103154;28;20100;-42
2022/05/04 11:35:56;;;;;;;3.97;1.13;;;;;;;23.38;20.01;99087.91;5100458;28;20039;-43
2022/05/04 11:38:22;;;;;;;4.57;1.13;;;;;;;22.75;20.15;99081.63;5104618;28;20043;-43
2022/05/04 11:40:49;;;;;;;5.40;2.28;;;;;;;24.14;19.21;99075.06;5105904;28;20044;-42
2022/05/04 11:43:33;;;;;;;6.00;2.00;;;;;;;26.10;17.76;99086.53;5090459;28;20043;-42
2022/05/04 11:46:07;;;;;;;3.95;1.15;;;;;;;27.39;17.17;99093.47;5094550;28;20039;-42
2022/05/04 11:48:35;;;;;;;6.07;1.52;;;;;;;27.48;15.96;99092.44;5114468;28;20039;-43
2022/05/04 11:51:02;;;;;;;1.40;0.80;;;;;;;25.44;16.05;99090.00;5114418;28;20084;-45
2022/05/04 11:53:27;;;;;;;1.83;0.80;;;;;;;25.42;16.29;99081.38;5113552;28;20063;-45
2022/05/04 11:55:53;;;;;;;1.20;0.80;;;;;;;25.33;15.98;99086.84;5113921;28;20047;-46
2022/05/04 11:58:26;;;;;;;7.03;1.60;;;;;;;25.52;16.42;99086.56;5102340;28;20055;-45
2022/05/04 12:00:51;;;;;;;12.02;1.60;;;;;;;27.02;15.95;99099.47;5097902;28;20078;-44
2022/05/04 12:03:18;;;;;;;9.48;1.75;;;;;;;28.21;14.98;99081.34;5110522;28;20515;-46
2022/05/04 12:05:44;;;;;;;4.32;1.25;;;;;;;29.17;14.34;99097.44;5095698;28;20067;-43
2022/05/04 12:08:10;;;;;;;7.88;1.52;;;;;;;29.54;13.73;99079.59;5092751;28;20132;-46
2022/05/04 12:10:36;;;;;;;1.40;0.70;;;;;;;27.66;14.39;99081.53;5110198;28;20043;-45